Time;durP1;ratioP1;P1;durP2;ratioP2;P2;SDS_P1;SDS_P2;PMS_P1;PMS_P2;Temp;Humidity;BMP_temperature;BMP_pressure;BME280_temperature;BME280_humidity;BME280_pressure;Samples;Min_cycle;Max_cycle;Signal;HPM_P1;HPM_P2
2022/06/29 00:01:19;;;;;;;;;;;;;;;-149.78;100.00;50123.34;5070587;28;19928;-73
2022/06/29 00:03:45;;;;;;;;;;;;;;;-149.78;100.00;50115.50;5074644;28;19916;-74
2022/06/29 00:06:11;;;;;;;;;;;;;;;-149.78;100.00;50117.47;5067567;28;19929;-74
2022/06/29 00:08:36;;;;;;;;;;;;;;;-149.78;100.00;50115.50;5069591;28;19939;-73
2022/06/29 00:11:03;;;;;;;;;;;;;;;-149.78;100.00;50164.41;5068176;28;19920;-74
2022/06/29 00:13:28;;;;;;;;;;;;;;;-149.78;100.00;50088.13;5057643;28;19922;-73
2022/06/29 00:15:54;;;;;;;;;;;;;;;-149.78;100.00;50111.59;5071681;28;19924;-73
2022/06/29 00:18:19;;;;;;;;;;;;;;;-149.78;100.00;50064.66;5065354;28;19920;-74
2022/06/29 00:20:45;;;;;;;;;;;;;;;-149.78;100.00;50154.63;5073172;28;19924;-74
2022/06/29 00:23:11;;;;;;;;;;;;;;;-149.78;100.00;50111.59;5082498;28;19986;-73
2022/06/29 00:25:36;;;;;;;;;;;;;;;-149.78;100.00;50109.66;5047818;28;19917;-73
2022/06/29 00:28:02;;;;;;;;;;;;;;;-149.78;100.00;50103.78;5067949;28;20118;-73
2022/06/29 00:30:28;;;;;;;;;;;;;;;-149.78;100.00;50150.72;5062892;28;19931;-73
2022/06/29 00:32:53;;;;;;;;;;;;;;;-149.78;100.00;50135.06;5064999;28;20405;-72
2022/06/29 00:35:18;;;;;;;;;;;;;;;-149.78;100.00;50127.25;5050168;28;19928;-72
2022/06/29 00:37:44;;;;;;;;;;;;;;;-149.78;100.00;50092.03;5063530;28;20382;-73
2022/06/29 00:40:11;;;;;;;;;;;;;;;-149.78;100.00;50094.00;5067262;28;20360;-70
2022/06/29 00:42:36;;;;;;;;;;;;;;;-149.78;100.00;50115.50;5065748;28;19946;-72
2022/06/29 00:45:03;;;;;;;;;;;;;;;-149.78;100.00;50131.16;5076845;28;19936;-72
2022/06/29 00:47:29;;;;;;;;;;;;;;;-149.78;100.00;50131.16;5085054;28;19920;-72
2022/06/29 00:49:55;;;;;;;;;;;;;;;-149.78;100.00;50127.25;5102164;28;19926;-72
2022/06/29 00:52:25;;;;;;;;;;;;;;;-149.78;100.00;50131.16;5097013;28;20329;-72
2022/06/29 00:55:00;;;;;;;;;;;;;;;-149.78;100.00;50111.59;5097656;28;19920;-72
2022/06/29 00:57:27;;;;;;;;;;;;;;;-149.78;100.00;50115.50;5094087;28;19916;-72
2022/06/29 01:00:02;;;;;;;;;;;;;;;-149.78;100.00;50138.97;5091832;28;19923;-72
2022/06/29 01:02:32;;;;;;;;;;;;;;;-149.78;100.00;50138.97;5086785;28;20385;-72
2022/06/29 01:04:57;;;;;;;;;;;;;;;-149.78;100.00;50094.00;5083912;28;19920;-73
2022/06/29 01:07:24;;;;;;;;;;;;;;;-149.78;100.00;50119.41;5086146;28;20636;-73
2022/06/29 01:09:52;;;;;;;;;;;;;;;-149.78;100.00;50086.19;5099245;28;20383;-72
2022/06/29 01:12:17;;;;;;;;;;;;;;;-149.78;100.00;50127.25;5094730;28;19935;-72
2022/06/29 01:14:43;;;;;;;;;;;;;;;-149.78;100.00;50152.66;5083901;28;19977;-73
2022/06/29 01:17:11;;;;;;;;;;;;;;;-149.78;100.00;50095.94;5096620;28;19963;-73
2022/06/29 01:19:36;;;;;;;;;;;;;;;-149.78;100.00;50164.41;5098307;28;19952;-73
2022/06/29 01:22:08;;;;;;;;;;;;;;;-149.78;100.00;50095.94;5071321;28;20414;-73
2022/06/29 01:24:34;;;;;;;;;;;;;;;-149.78;100.00;50099.88;5095829;28;20271;-73
2022/06/29 01:27:00;;;;;;;;;;;;;;;-149.78;100.00;50109.66;5083561;28;19938;-73
2022/06/29 01:29:25;;;;;;;;;;;;;;;-149.78;100.00;50135.06;5090301;28;19920;-73
2022/06/29 01:31:54;;;;;;;;;;;;;;;-149.78;100.00;50121.38;5085021;28;20015;-73
2022/06/29 01:34:19;;;;;;;;;;;;;;;-149.78;100.00;50146.81;5053064;28;20258;-73
2022/06/29 01:36:45;;;;;;;;;;;;;;;-149.78;100.00;50111.59;5091304;28;20038;-73
2022/06/29 01:39:10;;;;;;;;;;;;;;;-149.78;100.00;50138.97;5085950;28;19920;-73
2022/06/29 01:41:36;;;;;;;;;;;;;;;-149.78;100.00;50113.56;5093758;28;19924;-73
2022/06/29 01:44:01;;;;;;;;;;;;;;;-149.78;100.00;50103.78;5092129;28;19998;-73
2022/06/29 01:46:27;;;;;;;;;;;;;;;-149.78;100.00;50142.88;5090515;28;19928;-72
2022/06/29 01:48:52;;;;;;;;;;;;;;;-149.78;100.00;50088.13;5085832;28;21221;-72
2022/06/29 01:51:18;;;;;;;;;;;;;;;-149.78;100.00;50138.97;5091274;28;19931;-73
2022/06/29 01:53:44;;;;;;;;;;;;;;;-149.78;100.00;50123.34;5095552;28;19923;-73
2022/06/29 01:56:09;;;;;;;;;;;;;;;-149.78;100.00;50135.06;5077584;28;20291;-73
2022/06/29 01:58:34;;;;;;;;;;;;;;;-149.78;100.00;50123.34;5096017;28;20302;-72
2022/06/29 02:01:00;;;;;;;;;;;;;;;-149.78;100.00;50138.97;5086863;28;20857;-72
2022/06/29 02:03:26;;;;;;;;;;;;;;;-149.78;100.00;50125.28;5078896;28;20371;-72
2022/06/29 02:05:51;;;;;;;;;;;;;;;-149.78;100.00;50160.50;5086135;28;19995;-72
2022/06/29 02:08:16;;;;;;;;;;;;;;;-149.78;100.00;50123.34;5056530;28;19933;-72
2022/06/29 02:10:42;;;;;;;;;;;;;;;-149.78;100.00;50166.34;5085203;28;20349;-73
2022/06/29 02:13:08;;;;;;;;;;;;;;;-149.78;100.00;50107.69;5094489;28;19936;-72
2022/06/29 02:15:33;;;;;;;;;;;;;;;-149.78;100.00;50142.88;5088597;28;19919;-72
2022/06/29 02:17:59;;;;;;;;;;;;;;;-149.78;100.00;50138.97;5068473;28;20375;-72
2022/06/29 02:20:24;;;;;;;;;;;;;;;-149.78;100.00;50119.41;5085709;28;19924;-72
2022/06/29 02:22:49;;;;;;;;;;;;;;;-149.78;100.00;50133.09;5086091;28;19927;-72
2022/06/29 02:25:15;;;;;;;;;;;;;;;-149.78;100.00;50146.81;5081727;28;20398;-72
2022/06/29 02:27:41;;;;;;;;;;;;;;;-149.78;100.00;50121.38;5057541;28;19969;-72
2022/06/29 02:30:08;;;;;;;;;;;;;;;-149.78;100.00;50148.75;5091522;28;19922;-72
2022/06/29 02:35:19;;;;;;;;;;;;;;;-149.78;100.00;50127.25;5080044;28;19942;-71
2022/06/29 02:37:44;;;;;;;;;;;;;;;-149.78;100.00;50180.03;5085851;28;20026;-72
2022/06/29 02:40:10;;;;;;;;;;;;;;;-149.78;100.00;50154.63;5086671;28;20015;-71
2022/06/29 02:42:35;;;;;;;;;;;;;;;-149.78;100.00;50178.09;5076716;28;19924;-73
2022/06/29 02:45:01;;;;;;;;;;;;;;;-149.78;100.00;50174.19;5097002;28;19924;-72
2022/06/29 02:47:27;;;;;;;;;;;;;;;-149.78;100.00;50144.84;5089668;28;19931;-72
2022/06/29 02:49:53;;;;;;;;;;;;;;;-149.78;100.00;50142.88;5070621;28;19932;-72
2022/06/29 02:52:18;;;;;;;;;;;;;;;-149.78;100.00;50158.53;5080785;28;19977;-72
2022/06/29 02:54:44;;;;;;;;;;;;;;;-149.78;100.00;50168.31;5079902;28;19915;-72
2022/06/29 02:57:09;;;;;;;;;;;;;;;-149.78;100.00;50174.19;5092089;28;19932;-72
2022/06/29 02:59:34;;;;;;;;;;;;;;;-149.78;100.00;50189.81;5087368;28;19963;-72
2022/06/29 03:02:00;;;;;;;;;;;;;;;-149.78;100.00;50168.31;5090731;28;19924;-72
2022/06/29 03:04:25;;;;;;;;;;;;;;;-149.78;100.00;50162.44;5093154;28;19977;-72
2022/06/29 03:06:51;;;;;;;;;;;;;;;-149.78;100.00;50182.00;5089949;28;19920;-71
2022/06/29 03:09:16;;;;;;;;;;;;;;;-149.78;100.00;50201.56;5086400;28;19928;-72
2022/06/29 03:11:42;;;;;;;;;;;;;;;-149.78;100.00;50158.53;5086796;28;19958;-72
2022/06/29 03:14:07;;;;;;;;;;;;;;;-149.78;100.00;50178.09;5095670;28;19928;-71
2022/06/29 03:16:33;;;;;;;;;;;;;;;-149.78;100.00;50180.03;5086543;28;20350;-72
2022/06/29 03:18:58;;;;;;;;;;;;;;;-149.78;100.00;50154.63;5095064;28;20628;-72
2022/06/29 03:21:24;;;;;;;;;;;;;;;-149.78;100.00;50178.09;5094625;28;20323;-71
2022/06/29 03:23:49;;;;;;;;;;;;;;;-149.78;100.00;50158.53;5099267;28;19920;-71
2022/06/29 03:26:15;;;;;;;;;;;;;;;-149.78;100.00;50142.88;5103545;28;20044;-71
2022/06/29 03:28:40;;;;;;;;;;;;;;;-149.78;100.00;50135.06;5082286;28;20315;-72
2022/06/29 03:31:06;;;;;;;;;;;;;;;-149.78;100.00;50148.75;5100716;28;20018;-72
2022/06/29 03:33:31;;;;;;;;;;;;;;;-149.78;100.00;50144.84;5091067;28;19928;-72
2022/06/29 03:35:57;;;;;;;;;;;;;;;-149.78;100.00;50156.56;5092844;28;19916;-73
2022/06/29 03:38:23;;;;;;;;;;;;;;;-149.78;100.00;50166.34;5087631;28;19919;-72
2022/06/29 03:40:48;;;;;;;;;;;;;;;-149.78;100.00;50166.34;5088080;28;20035;-72
2022/06/29 03:43:14;;;;;;;;;;;;;;;-149.78;100.00;50185.91;5095876;28;20429;-73
2022/06/29 03:45:39;;;;;;;;;;;;;;;-149.78;100.00;50185.91;5085277;28;19916;-74
2022/06/29 03:48:05;;;;;;;;;;;;;;;-149.78;100.00;50164.41;5094598;28;20118;-72
2022/06/29 03:50:30;;;;;;;;;;;;;;;-149.78;100.00;50154.63;5092562;28;19931;-73
2022/06/29 03:52:56;;;;;;;;;;;;;;;-149.78;100.00;50172.22;5098128;28;19926;-72
2022/06/29 03:55:21;;;;;;;;;;;;;;;-149.78;100.00;50189.81;5089187;28;19924;-73
2022/06/29 03:57:47;;;;;;;;;;;;;;;-149.78;100.00;50209.38;5086585;28;19934;-72
2022/06/29 04:00:12;;;;;;;;;;;;;;;-149.78;100.00;50182.00;5069438;28;19968;-73
2022/06/29 04:02:39;;;;;;;;;;;;;;;-149.78;100.00;50170.25;5099010;28;19927;-71
2022/06/29 04:05:05;;;;;;;;;;;;;;;-149.78;100.00;50166.34;5092019;28;19923;-74
2022/06/29 04:07:31;;;;;;;;;;;;;;;-149.78;100.00;50189.81;5101277;28;19938;-74
2022/06/29 04:10:00;;;;;;;;;;;;;;;-149.78;100.00;50189.81;5097296;28;19916;-71
2022/06/29 04:12:32;;;;;;;;;;;;;;;-149.78;100.00;50158.53;5100441;28;19919;-71
2022/06/29 04:14:58;;;;;;;;;;;;;;;-149.78;100.00;50217.19;5068730;28;19973;-72
2022/06/29 04:17:23;;;;;;;;;;;;;;;-149.78;100.00;50170.25;5089162;28;20379;-73
2022/06/29 04:19:51;;;;;;;;;;;;;;;-149.78;100.00;50162.44;5087069;28;20010;-72
2022/06/29 04:22:16;;;;;;;;;;;;;;;-149.78;100.00;50178.09;5091820;28;19916;-75
2022/06/29 04:24:42;;;;;;;;;;;;;;;-149.78;100.00;50205.47;5087731;28;19920;-71
2022/06/29 04:27:07;;;;;;;;;;;;;;;-149.78;100.00;50187.88;5088057;28;19924;-71
2022/06/29 04:29:33;;;;;;;;;;;;;;;-149.78;100.00;50170.25;5089133;28;19955;-71
2022/06/29 04:31:58;;;;;;;;;;;;;;;-149.78;100.00;50197.66;5076257;28;20076;-72
2022/06/29 04:34:23;;;;;;;;;;;;;;;-149.78;100.00;50174.19;5087413;28;19920;-71
2022/06/29 04:36:51;;;;;;;;;;;;;;;-149.78;100.00;50158.53;5096813;28;19924;-72
2022/06/29 04:39:17;;;;;;;;;;;;;;;-149.78;100.00;50182.00;5073452;28;20021;-71
2022/06/29 04:41:42;;;;;;;;;;;;;;;-149.78;100.00;50189.81;5088985;28;20013;-72
2022/06/29 04:44:07;;;;;;;;;;;;;;;-149.78;100.00;50180.03;5085272;28;19916;-72
2022/06/29 04:46:33;;;;;;;;;;;;;;;-149.78;100.00;50162.44;5085075;28;19924;-71
2022/06/29 04:49:00;;;;;;;;;;;;;;;-149.78;100.00;50199.59;5084538;28;20865;-73
2022/06/29 04:51:26;;;;;;;;;;;;;;;-149.78;100.00;50197.66;5087364;28;19956;-71
2022/06/29 04:53:56;;;;;;;;;;;;;;;-149.78;100.00;50166.34;5090795;28;19969;-72
2022/06/29 04:56:25;;;;;;;;;;;;;;;-149.78;100.00;50176.13;5085789;28;19928;-72
2022/06/29 04:58:53;;;;;;;;;;;;;;;-149.78;100.00;50176.13;5069720;28;19979;-71
2022/06/29 05:01:18;;;;;;;;;;;;;;;-149.78;100.00;50183.97;5089108;28;19945;-71
2022/06/29 05:03:44;;;;;;;;;;;;;;;-149.78;100.00;50189.81;5095773;28;19928;-71
2022/06/29 05:06:10;;;;;;;;;;;;;;;-149.78;100.00;50197.66;5094738;28;19919;-71
2022/06/29 05:08:35;;;;;;;;;;;;;;;-149.78;100.00;50209.38;5089959;28;19923;-73
2022/06/29 05:11:01;;;;;;;;;;;;;;;-149.78;100.00;50170.25;5068335;28;19920;-73
2022/06/29 05:13:26;;;;;;;;;;;;;;;-149.78;100.00;50164.41;5055823;28;19922;-71
2022/06/29 05:15:52;;;;;;;;;;;;;;;-149.78;100.00;50185.91;5076545;28;19920;-72
2022/06/29 05:18:17;;;;;;;;;;;;;;;-149.78;100.00;50189.81;5078072;28;19928;-71
2022/06/29 05:20:43;;;;;;;;;;;;;;;-149.78;100.00;50193.72;5085946;28;20374;-74
2022/06/29 05:23:09;;;;;;;;;;;;;;;-149.78;100.00;50205.47;5086385;28;19928;-73
2022/06/29 05:25:34;;;;;;;;;;;;;;;-149.78;100.00;50201.56;5099589;28;19923;-74
2022/06/29 05:28:01;;;;;;;;;;;;;;;-149.78;100.00;50199.59;5080782;28;20462;-71
2022/06/29 05:30:27;;;;;;;;;;;;;;;-149.78;100.00;50185.91;5094289;28;19992;-73
2022/06/29 05:32:52;;;;;;;;;;;;;;;-149.78;100.00;50174.19;5084013;28;20875;-73
2022/06/29 05:35:17;;;;;;;;;;;;;;;-149.78;100.00;50201.56;5080860;28;19970;-72
2022/06/29 05:37:43;;;;;;;;;;;;;;;-149.78;100.00;50154.63;5085119;28;19916;-72
2022/06/29 05:40:09;;;;;;;;;;;;;;;-149.78;100.00;50205.47;5084276;28;19928;-73
2022/06/29 05:42:34;;;;;;;;;;;;;;;-149.78;100.00;50217.19;5080674;28;20280;-73
2022/06/29 05:45:00;;;;;;;;;;;;;;;-149.78;100.00;50213.28;5082448;28;19931;-72
2022/06/29 05:47:26;;;;;;;;;;;;;;;-149.78;100.00;50228.94;5084157;28;20357;-72
2022/06/29 05:49:51;;;;;;;;;;;;;;;-149.78;100.00;50236.75;5083124;28;19928;-71
2022/06/29 05:52:16;;;;;;;;;;;;;;;-149.78;100.00;50180.03;5081617;28;19928;-71
2022/06/29 05:54:42;;;;;;;;;;;;;;;-149.78;100.00;50187.88;5083466;28;20018;-71
2022/06/29 05:57:07;;;;;;;;;;;;;;;-149.78;100.00;50228.94;5083019;28;19923;-71
2022/06/29 05:59:33;;;;;;;;;;;;;;;-149.78;100.00;50189.81;5087046;28;19928;-72
2022/06/29 06:01:58;;;;;;;;;;;;;;;-149.78;100.00;50189.81;5084680;28;19930;-72
2022/06/29 06:04:25;;;;;;;;;;;;;;;-149.78;100.00;50225.03;5081708;28;19938;-72
2022/06/29 06:06:51;;;;;;;;;;;;;;;-149.78;100.00;50166.34;5064950;28;19949;-72
2022/06/29 06:09:17;;;;;;;;;;;;;;;-149.78;100.00;50219.16;5065682;28;20356;-73
2022/06/29 06:11:43;;;;;;;;;;;;;;;-149.78;100.00;50166.34;5079082;28;19928;-70
2022/06/29 06:14:09;;;;;;;;;;;;;;;-149.78;100.00;50201.56;5082978;28;19928;-71
2022/06/29 06:16:34;;;;;;;;;;;;;;;-149.78;100.00;50174.19;5084270;28;19920;-70
2022/06/29 06:19:00;;;;;;;;;;;;;;;-149.78;100.00;50189.81;5088241;28;19985;-72
2022/06/29 06:21:25;;;;;;;;;;;;;;;-149.78;100.00;50166.34;5076940;28;19924;-70
2022/06/29 06:23:51;;;;;;;;;;;;;;;-149.78;100.00;50182.00;5089284;28;19935;-68
2022/06/29 06:26:16;;;;;;;;;;;;;;;-149.78;100.00;50189.81;5086504;28;21131;-69
2022/06/29 06:28:41;;;;;;;;;;;;;;;-149.78;100.00;50209.38;5087946;28;19930;-69
2022/06/29 06:31:07;;;;;;;;;;;;;;;-149.78;100.00;50209.38;5083347;28;19928;-69
2022/06/29 06:33:33;;;;;;;;;;;;;;;-149.78;100.00;50197.66;5086457;28;19920;-70
2022/06/29 06:35:58;;;;;;;;;;;;;;;-149.78;100.00;50197.66;5083742;28;19920;-70
2022/06/29 06:38:23;;;;;;;;;;;;;;;-149.78;100.00;50178.09;5074534;28;19974;-69
2022/06/29 06:43:33;;;;;;;;;;;;;;;-149.78;100.00;50185.91;5088248;28;19935;-69
2022/06/29 06:45:58;;;;;;;;;;;;;;;-149.78;100.00;50168.31;5071286;28;19927;-69
2022/06/29 06:48:24;;;;;;;;;;;;;;;-149.78;100.00;50225.03;5087653;28;19931;-69
2022/06/29 06:50:49;;;;;;;;;;;;;;;-149.78;100.00;50189.81;5085191;28;20018;-68
2022/06/29 06:53:15;;;;;;;;;;;;;;;-149.78;100.00;50174.19;5052838;28;20386;-69
2022/06/29 06:55:40;;;;;;;;;;;;;;;-149.78;100.00;50178.09;5087428;28;19939;-69
2022/06/29 06:58:05;;;;;;;;;;;;;;;-149.78;100.00;50178.09;5068768;28;20326;-69
2022/06/29 07:00:31;;;;;;;;;;;;;;;-149.78;100.00;50203.50;5089854;28;19924;-69
2022/06/29 07:02:57;;;;;;;;;;;;;;;-149.78;100.00;50178.09;5069580;28;20351;-69
2022/06/29 07:05:22;;;;;;;;;;;;;;;-149.78;100.00;50201.56;5088779;28;19947;-69
2022/06/29 07:07:47;;;;;;;;;;;;;;;-149.78;100.00;50154.63;5099974;28;19968;-69
2022/06/29 07:10:13;;;;;;;;;;;;;;;-149.78;100.00;50174.19;5089047;28;19982;-69
2022/06/29 07:12:38;;;;;;;;;;;;;;;-149.78;100.00;50150.72;5090197;28;20013;-69
2022/06/29 07:15:04;;;;;;;;;;;;;;;-149.78;100.00;50205.47;5091130;28;19924;-70
2022/06/29 07:17:29;;;;;;;;;;;;;;;-149.78;100.00;50189.81;5097913;28;19926;-69
2022/06/29 07:19:55;;;;;;;;;;;;;;;-149.78;100.00;50142.88;5090065;28;20435;-69
2022/06/29 07:22:21;;;;;;;;;;;;;;;-149.78;100.00;50178.09;5091895;28;19927;-69
2022/06/29 07:24:46;;;;;;;;;;;;;;;-149.78;100.00;50142.88;5090616;28;19975;-69
2022/06/29 07:27:12;;;;;;;;;;;;;;;-149.78;100.00;50146.81;5087848;28;19932;-69
2022/06/29 07:29:38;;;;;;;;;;;;;;;-149.78;100.00;50119.41;5086190;28;20023;-69
2022/06/29 07:32:03;;;;;;;;;;;;;;;-149.78;100.00;50052.94;5094389;28;19919;-68
2022/06/29 07:34:29;;;;;;;;;;;;;;;-149.78;100.00;49994.25;5097837;28;19966;-67
2022/06/29 07:36:55;;;;;;;;;;;;;;;-149.78;100.00;49996.22;5095837;28;19924;-67
2022/06/29 07:39:20;;;;;;;;;;;;;;;-149.78;100.00;49990.34;5097558;28;20534;-69
2022/06/29 07:41:46;;;;;;;;;;;;;;;-149.78;93.89;49962.97;5087957;28;20395;-68
2022/06/29 07:44:11;;;;;;;;;;;;;;;-149.78;79.46;49935.59;5097599;28;19927;-66
2022/06/29 07:46:37;;;;;;;;;;;;;;;-149.78;67.82;49900.41;5093575;28;19927;-66
2022/06/29 07:49:03;;;;;;;;;;;;;;;-149.78;71.93;49962.97;5098219;28;19935;-66
2022/06/29 07:51:28;;;;;;;;;;;;;;;-149.78;71.18;49951.25;5088288;28;19916;-66
2022/06/29 07:53:54;;;;;;;;;;;;;;;-149.78;69.92;49951.25;5094122;28;19923;-67
2022/06/29 07:56:19;;;;;;;;;;;;;;;-149.78;69.69;49935.59;5087585;28;19935;-66
2022/06/29 07:58:45;;;;;;;;;;;;;;;-149.78;73.56;49972.75;5091910;28;19924;-66
2022/06/29 08:01:10;;;;;;;;;;;;;;;-149.78;92.68;50002.09;5094096;28;19955;-68
2022/06/29 08:03:36;;;;;;;;;;;;;;;-149.78;85.04;49974.72;5088343;28;19915;-68
2022/06/29 08:06:01;;;;;;;;;;;;;;;-149.78;74.59;49916.03;5094271;28;20264;-69
2022/06/29 08:08:28;;;;;;;;;;;;;;;-149.78;63.35;49925.81;5075845;28;19927;-69
2022/06/29 08:10:53;;;;;;;;;;;;;;;-149.78;59.21;49884.75;5089303;28;19920;-66
2022/06/29 08:13:19;;;;;;;;;;;;;;;-149.78;58.65;49923.88;5099640;28;19928;-66
2022/06/29 08:15:45;;;;;;;;;;;;;;;-149.78;56.09;49927.78;5098218;28;20299;-71
2022/06/29 08:18:12;;;;;;;;;;;;;;;-149.78;56.07;49874.97;5086298;28;20326;-68
2022/06/29 08:20:38;;;;;;;;;;;;;;;-149.78;51.17;49888.66;5086938;28;20053;-68
2022/06/29 08:23:05;;;;;;;;;;;;;;;-149.78;56.71;49951.25;5087086;28;20022;-69
2022/06/29 08:25:31;;;;;;;;;;;;;;;-149.78;60.52;49939.50;5089530;28;20023;-68
2022/06/29 08:27:57;;;;;;;;;;;;;;;-149.78;60.42;49955.16;5089435;28;20421;-68
2022/06/29 08:30:22;;;;;;;;;;;;;;;-149.78;57.29;49861.28;5085747;28;19947;-69
2022/06/29 08:32:49;;;;;;;;;;;;;;;-149.78;47.31;49806.53;5084561;28;19944;-68
2022/06/29 08:35:15;;;;;;;;;;;;;;;-149.78;47.63;49833.91;5089741;28;20010;-69
2022/06/29 08:37:41;;;;;;;;;;;;;;;-149.78;45.91;49833.91;5090363;28;19928;-67
2022/06/29 08:40:08;;;;;;;;;;;;;;;-149.78;46.46;49843.69;5067352;28;20009;-68
2022/06/29 08:42:34;;;;;;;;;;;;;;;-149.78;42.99;49798.72;5090302;28;19962;-68
2022/06/29 08:45:00;;;;;;;;;;;;;;;-149.78;47.47;49853.47;5084027;28;20003;-69
2022/06/29 08:47:26;;;;;;;;;;;;;;;-149.78;52.61;49878.88;5088677;28;20023;-68
2022/06/29 08:49:51;;;;;;;;;;;;;;;-149.78;47.92;49841.72;5084522;28;20033;-69
2022/06/29 08:52:18;;;;;;;;;;;;;;;-149.78;43.88;49794.81;5086485;28;20293;-69
2022/06/29 08:54:46;;;;;;;;;;;;;;;-149.78;49.95;49900.41;5091514;28;19916;-69
2022/06/29 08:57:12;;;;;;;;;;;;;;;-149.78;47.97;49908.22;5084011;28;19923;-69
2022/06/29 08:59:37;;;;;;;;;;;;;;;-149.78;48.60;49937.56;5084831;28;20295;-68
2022/06/29 09:02:04;;;;;;;;;;;;;;;-149.78;54.02;49974.72;5086078;28;19928;-68
2022/06/29 09:04:30;;;;;;;;;;;;;;;-149.78;53.11;49959.06;5067469;28;19928;-68
2022/06/29 09:06:56;;;;;;;;;;;;;;;-149.78;55.40;49937.56;5088432;28;19916;-69
2022/06/29 09:09:23;;;;;;;;;;;;;;;-149.78;50.47;49953.19;5097069;28;19938;-69
2022/06/29 09:11:49;;;;;;;;;;;;;;;-149.78;52.72;49955.16;5078897;28;19988;-68
2022/06/29 09:14:16;;;;;;;;;;;;;;;-149.78;48.62;49880.84;5085290;28;19966;-68
2022/06/29 09:16:50;;;;;;;;;;;;;;;-149.78;40.85;49876.94;5084569;28;20377;-68
2022/06/29 09:19:15;;;;;;;;;;;;;;;-149.78;43.29;49900.41;5091314;28;19920;-70
2022/06/29 09:21:48;;;;;;;;;;;;;;;-149.78;48.89;49955.16;5084488;28;19924;-69
2022/06/29 09:24:14;;;;;;;;;;;;;;;-149.78;47.72;49947.34;5095619;28;19932;-69
2022/06/29 09:26:39;;;;;;;;;;;;;;;-149.78;50.24;49937.56;5099153;28;19916;-69
2022/06/29 09:29:39;;;;;;;;;;;;;;;-149.78;52.79;49982.53;5088212;28;19924;-69
2022/06/29 09:32:05;;;;;;;;;;;;;;;-149.78;56.40;50006.00;5048726;28;19920;-69
2022/06/29 09:34:31;;;;;;;;;;;;;;;-149.78;58.57;49959.06;5085179;28;19916;-68
2022/06/29 09:36:58;;;;;;;;;;;;;;;-149.78;56.04;49951.25;5084949;28;20257;-69
2022/06/29 09:39:32;;;;;;;;;;;;;;;-149.78;51.71;49962.97;5072422;28;19929;-69
2022/06/29 09:41:58;;;;;;;;;;;;;;;-149.78;51.72;49957.09;5084604;28;19922;-69
2022/06/29 09:44:24;;;;;;;;;;;;;;;-149.78;53.49;49916.03;5061308;28;20374;-69
2022/06/29 09:46:53;;;;;;;;;;;;;;;-149.78;47.65;49931.69;5095336;28;20026;-69
2022/06/29 09:49:22;;;;;;;;;;;;;;;-149.78;49.24;49933.66;5087702;28;19924;-69
2022/06/29 09:51:49;;;;;;;;;;;;;;;-149.78;51.72;49935.59;5086178;28;19920;-69
2022/06/29 09:54:15;;;;;;;;;;;;;;;-149.78;53.76;49986.44;5095760;28;19966;-69
2022/06/29 09:56:49;;;;;;;;;;;;;;;-149.78;53.49;49998.19;5094219;28;20499;-69
2022/06/29 09:59:21;;;;;;;;;;;;;;;-149.78;57.16;50017.72;5080817;28;19923;-68
2022/06/29 10:04:32;;;;;;;;;;;;;;;-149.78;69.16;50076.41;5087332;28;19920;-68
2022/06/29 10:06:58;;;;;;;;;;;;;;;-149.78;66.38;50047.06;5095841;28;20449;-69
2022/06/29 10:09:23;;;;;;;;;;;;;;;-149.78;70.38;50045.09;5100897;28;19927;-68
2022/06/29 10:15:05;;;;;;;;;;;;;;;-149.78;55.78;50009.91;5091787;28;19927;-68
2022/06/29 10:17:49;;;;;;;;;;;;;;;-149.78;53.23;49974.72;5100950;28;19970;-69
2022/06/29 10:20:45;;;;;;;;;;;;;;;-149.78;54.44;49982.53;5089242;28;19923;-69
2022/06/29 10:23:29;;;;;;;;;;;;;;;-149.78;55.69;50013.81;5083137;28;19916;-69
2022/06/29 10:25:55;;;;;;;;;;;;;;;-149.78;54.25;49982.53;5094695;28;19981;-69
2022/06/29 10:28:23;;;;;;;;;;;;;;;-149.78;54.33;50029.47;5091952;28;20333;-68
2022/06/29 10:30:49;;;;;;;;;;;;;;;-149.78;52.17;50013.81;5086681;28;19916;-69
2022/06/29 10:33:29;;;;;;;;;;;;;;;-149.78;52.32;49998.19;5090650;28;19952;-68
2022/06/29 10:36:04;;;;;;;;;;;;;;;-149.78;56.39;49986.44;5088751;28;19913;-69
2022/06/29 10:38:31;;;;;;;;;;;;;;;-149.78;57.90;49959.06;5095791;28;19915;-68
2022/06/29 10:44:11;;;;;;;;;;;;;;;-149.78;54.92;49994.25;5063495;28;19919;-68
2022/06/29 10:46:56;;;;;;;;;;;;;;;-149.78;56.57;49994.25;5099790;28;19938;-69
2022/06/29 10:49:23;;;;;;;;;;;;;;;-149.78;53.32;49996.22;5069771;28;20299;-68
2022/06/29 10:51:53;;;;;;;;;;;;;;;-149.78;52.52;49966.88;5070371;28;19924;-68
2022/06/29 10:54:22;;;;;;;;;;;;;;;-149.78;52.74;49998.19;5089317;28;19928;-68
2022/06/29 10:56:48;;;;;;;;;;;;;;;-149.78;54.03;49994.25;5087784;28;19924;-68
2022/06/29 10:59:32;;;;;;;;;;;;;;;-149.78;54.76;49984.50;5087935;28;19949;-68
2022/06/29 11:02:15;;;;;;;;;;;;;;;-149.78;59.34;50025.56;5098078;28;19920;-68
2022/06/29 11:04:43;;;;;;;;;;;;;;;-149.78;60.19;50013.81;5098817;28;19924;-68
2022/06/29 11:12:51;;;;;;;;;;;;;;;-149.78;58.61;50045.09;5087818;28;19924;-68
2022/06/29 11:15:42;;;;;;;;;;;;;;;-149.78;62.24;50006.00;5087765;28;19950;-68
2022/06/29 11:18:10;;;;;;;;;;;;;;;-149.78;58.82;50004.03;5085925;28;19920;-70
2022/06/29 11:20:36;;;;;;;;;;;;;;;-149.78;57.46;49962.97;5087511;28;20415;-69
2022/06/29 11:23:02;;;;;;;;;;;;;;;-149.78;53.45;50011.88;5088554;28;20010;-68
2022/06/29 11:25:35;;;;;;;;;;;;;;;-149.78;53.33;49964.94;5091513;28;19968;-68
2022/06/29 11:28:00;;;;;;;;;;;;;;;-149.78;53.19;49961.03;5080676;28;20411;-68
2022/06/29 11:30:25;;;;;;;;;;;;;;;-149.78;48.94;50017.72;5086545;28;19947;-69
2022/06/29 11:32:51;;;;;;;;;;;;;;;-149.78;50.19;50009.91;5087415;28;19924;-68
2022/06/29 11:35:18;;;;;;;;;;;;;;;-149.78;50.66;49966.88;5087766;28;19963;-68
2022/06/29 11:37:46;;;;;;;;;;;;;;;-149.78;49.17;49994.25;5068460;28;20353;-67
2022/06/29 11:40:12;;;;;;;;;;;;;;;-149.78;49.84;49962.97;5087196;28;20177;-68
2022/06/29 11:45:21;;;;;;;;;;;;;;;-149.78;50.29;49949.28;5091955;28;19920;-69
2022/06/29 11:47:50;;;;;;;;;;;;;;;-149.78;52.59;49978.63;5086595;28;19932;-68
2022/06/29 11:50:15;;;;;;;;;;;;;;;-149.78;51.18;49974.72;5086326;28;19981;-68
2022/06/29 11:52:44;;;;;;;;;;;;;;;-149.78;50.67;49984.50;5084383;28;19926;-68
2022/06/29 11:55:09;;;;;;;;;;;;;;;-149.78;51.23;49951.25;5096178;28;20279;-68
2022/06/29 11:57:35;;;;;;;;;;;;;;;-149.78;52.36;49992.31;5100791;28;19920;-68
2022/06/29 12:00:08;;;;;;;;;;;;;;;-149.78;51.04;49994.25;5093663;28;19928;-68
2022/06/29 12:02:34;;;;;;;;;;;;;;;-149.78;51.55;49964.94;5088132;28;19923;-68
2022/06/29 12:05:00;;;;;;;;;;;;;;;-149.78;49.72;49980.56;5104041;28;19994;-69
2022/06/29 12:07:27;;;;;;;;;;;;;;;-149.78;53.19;50000.13;5091905;28;19920;-68
2022/06/29 12:09:53;;;;;;;;;;;;;;;-149.78;52.30;49998.19;5068365;28;20057;-68
2022/06/29 12:12:19;;;;;;;;;;;;;;;-149.78;51.83;49976.66;5086907;28;20366;-68
2022/06/29 12:14:45;;;;;;;;;;;;;;;-149.78;53.04;49951.25;5085734;28;19919;-68
2022/06/29 12:17:13;;;;;;;;;;;;;;;-149.78;50.29;50009.91;5084885;28;20430;-68
2022/06/29 12:19:38;;;;;;;;;;;;;;;-149.78;49.52;49966.88;5093000;28;19968;-69
2022/06/29 12:22:04;;;;;;;;;;;;;;;-149.78;50.03;49986.44;5089800;28;19928;-68
2022/06/29 12:24:29;;;;;;;;;;;;;;;-149.78;50.52;49986.44;5093093;28;20056;-68
2022/06/29 12:26:55;;;;;;;;;;;;;;;-149.78;50.44;49986.44;5086724;28;19927;-68
2022/06/29 12:29:21;;;;;;;;;;;;;;;-149.78;53.40;49998.19;5091836;28;19924;-68
2022/06/29 12:31:46;;;;;;;;;;;;;;;-149.78;51.69;50021.63;5099062;28;19923;-69
2022/06/29 12:34:13;;;;;;;;;;;;;;;-149.78;53.53;50002.09;5082761;28;19961;-68
2022/06/29 12:36:39;;;;;;;;;;;;;;;-149.78;54.94;49978.63;5081864;28;19924;-69
2022/06/29 12:39:06;;;;;;;;;;;;;;;-149.78;51.25;49982.53;5080495;28;20249;-68
2022/06/29 12:41:32;;;;;;;;;;;;;;;-149.78;50.94;50013.81;5088325;28;19920;-68